Time;durP1;ratioP1;P1;durP2;ratioP2;P2;SDS_P1;SDS_P2;PMS_P1;PMS_P2;Temp;Humidity;BMP_temperature;BMP_pressure;BME280_temperature;BME280_humidity;BME280_pressure;Samples;Min_cycle;Max_cycle;Signal;HPM_P1;HPM_P2
2021/08/11 04:43:08;;;;;;;7.90;4.70;;;;;;;15.21;80.35;100246.59;5005990;28;105831;-74
2021/08/11 04:45:36;;;;;;;6.57;3.80;;;;;;;15.35;80.55;100252.84;5008421;28;106354;-76
2021/08/11 04:48:02;;;;;;;8.15;4.45;;;;;;;15.52;80.28;100254.16;5008370;28;106221;-74
2021/08/11 04:50:27;;;;;;;6.93;4.40;;;;;;;15.68;80.56;100244.09;5002753;28;106172;-76
2021/08/11 04:52:53;;;;;;;7.50;4.13;;;;;;;15.87;80.52;100246.03;5004995;28;106022;-70
2021/08/11 04:55:18;;;;;;;8.45;3.60;;;;;;;16.09;80.24;100248.56;5005772;28;106359;-68
2021/08/11 04:57:43;;;;;;;8.90;4.53;;;;;;;16.32;80.37;100247.31;5004537;28;106197;-74
2021/08/11 05:00:09;;;;;;;7.28;3.95;;;;;;;16.58;80.17;100252.69;5004664;28;106196;-77
2021/08/11 05:02:34;;;;;;;8.55;3.95;;;;;;;16.82;79.97;100255.75;5004789;28;106054;-70
2021/08/11 05:05:00;;;;;;;6.15;4.10;;;;;;;17.00;79.47;100247.03;5007924;28;105850;-81
2021/08/11 05:07:26;;;;;;;6.07;3.05;;;;;;;17.15;79.00;100254.88;5005798;28;105905;-69
2021/08/11 05:09:52;;;;;;;4.70;2.83;;;;;;;17.34;78.79;100265.78;5003531;28;106019;-72
2021/08/11 05:12:17;;;;;;;8.40;3.25;;;;;;;17.49;78.22;100271.72;5005298;28;106254;-79
2021/08/11 05:14:43;;;;;;;6.68;3.67;;;;;;;17.62;78.00;100270.00;5006025;28;106119;-76
2021/08/11 05:17:08;;;;;;;6.18;3.35;;;;;;;17.74;77.41;100265.59;5004355;28;106297;-76
2021/08/11 05:19:34;;;;;;;5.72;3.15;;;;;;;17.82;76.92;100270.72;5004811;28;106076;-71
2021/08/11 05:21:59;;;;;;;9.45;3.58;;;;;;;17.91;76.76;100266.78;5004417;28;106382;-73
2021/08/11 05:24:25;;;;;;;9.18;4.35;;;;;;;18.08;76.47;100268.94;5005063;28;106024;-70
2021/08/11 05:26:50;;;;;;;6.22;3.33;;;;;;;18.24;76.46;100273.81;5004732;28;106233;-72
2021/08/11 05:29:19;;;;;;;7.30;3.67;;;;;;;18.40;75.75;100279.72;5004672;28;105938;-72
2021/08/11 05:31:45;;;;;;;9.00;3.67;;;;;;;18.49;75.39;100277.56;5003791;28;106291;-73
2021/08/11 05:34:10;;;;;;;6.32;3.40;;;;;;;18.59;75.08;100283.28;5005340;28;105824;-76
2021/08/11 05:36:36;;;;;;;8.65;3.72;;;;;;;18.65;74.25;100281.59;5004680;28;106141;-78
2021/08/11 05:39:02;;;;;;;6.80;3.22;;;;;;;18.69;73.89;100289.00;5005055;27;105871;-80
2021/08/11 05:41:27;;;;;;;5.22;3.50;;;;;;;18.74;74.19;100282.94;5003723;28;106032;-74
2021/08/11 05:43:53;;;;;;;7.50;3.40;;;;;;;18.79;73.40;100288.50;5003903;28;105933;-78
2021/08/11 05:46:18;;;;;;;10.80;4.28;;;;;;;18.80;72.97;100292.03;5002995;28;106238;-71
2021/08/11 05:48:43;;;;;;;6.05;3.20;;;;;;;18.76;72.76;100286.25;5004106;28;105933;-72
2021/08/11 05:51:09;;;;;;;7.13;3.30;;;;;;;18.71;71.97;100296.88;5004007;28;105779;-72
2021/08/11 05:53:34;;;;;;;6.82;3.58;;;;;;;18.58;71.88;100290.53;4995913;28;106058;-69
2021/08/11 05:55:59;;;;;;;5.35;3.33;;;;;;;18.47;72.00;100296.66;4990943;28;106235;-72
2021/08/11 05:58:25;;;;;;;7.05;3.45;;;;;;;18.42;72.05;100293.78;4990722;28;106085;-74
2021/08/11 06:00:50;;;;;;;5.10;3.50;;;;;;;18.39;72.15;100305.84;4989773;28;106219;-73
2021/08/11 06:03:16;;;;;;;7.72;4.20;;;;;;;18.46;71.94;100294.19;4991055;28;105916;-68
2021/08/11 06:05:41;;;;;;;5.90;3.75;;;;;;;18.57;72.37;100296.97;4971269;28;106255;-72
2021/08/11 06:08:06;;;;;;;5.93;3.60;;;;;;;18.77;72.33;100301.41;4970775;28;106332;-74
2021/08/11 06:10:32;;;;;;;5.22;3.40;;;;;;;18.96;72.27;100304.97;4970809;28;106195;-77
2021/08/11 06:12:58;;;;;;;6.50;3.53;;;;;;;19.13;71.87;100294.41;4971893;28;105977;-73
2021/08/11 06:15:23;;;;;;;5.93;3.42;;;;;;;19.31;71.60;100298.16;4970968;28;106316;-73
2021/08/11 06:17:50;;;;;;;6.47;3.50;;;;;;;19.47;71.39;100297.56;4987394;28;106418;-75
2021/08/11 06:20:20;;;;;;;7.38;3.20;;;;;;;19.68;71.16;100292.72;4990591;28;106652;-67
2021/08/11 06:22:46;;;;;;;7.25;3.47;;;;;;;19.81;70.46;100295.28;4991336;28;106394;-77
2021/08/11 06:25:13;;;;;;;9.10;3.78;;;;;;;19.98;69.99;100300.06;4989654;28;106269;-76
2021/08/11 06:27:38;;;;;;;6.43;3.22;;;;;;;20.17;70.03;100293.50;4990293;28;106101;-75
2021/08/11 06:30:06;;;;;;;11.02;3.95;;;;;;;20.33;69.44;100292.03;4990396;28;106560;-76
2021/08/11 06:32:31;;;;;;;7.93;2.95;;;;;;;20.48;68.79;100305.13;4991318;28;105831;-74
2021/08/11 06:34:56;;;;;;;5.80;3.03;;;;;;;20.58;68.18;100286.41;4990735;28;105937;-71
2021/08/11 06:37:22;;;;;;;5.57;2.90;;;;;;;20.72;68.05;100299.75;4990521;28;106661;-70
2021/08/11 06:39:47;;;;;;;6.05;3.10;;;;;;;20.84;67.31;100303.28;4990107;28;105996;-74
2021/08/11 06:42:12;;;;;;;6.13;3.00;;;;;;;20.89;65.77;100308.81;4991048;28;106234;-77
2021/08/11 06:44:38;;;;;;;5.32;3.05;;;;;;;20.90;65.37;100307.75;4990449;28;105948;-77
2021/08/11 06:47:03;;;;;;;5.43;2.78;;;;;;;20.99;65.64;100313.63;4990326;28;106015;-76
2021/08/11 06:49:28;;;;;;;8.73;3.80;;;;;;;21.14;65.32;100318.56;4990333;28;106183;-77
2021/08/11 06:51:54;;;;;;;7.57;2.67;;;;;;;21.30;64.83;100320.53;4991223;28;105940;-74
2021/08/11 06:54:19;;;;;;;5.65;2.92;;;;;;;21.46;64.46;100320.88;4990555;28;106163;-74
2021/08/11 06:56:44;;;;;;;5.30;2.95;;;;;;;21.55;63.39;100319.47;4989695;28;106270;-73
2021/08/11 06:59:10;;;;;;;6.75;3.10;;;;;;;21.61;63.11;100318.50;4989935;28;106457;-78
2021/08/11 07:01:35;;;;;;;5.93;2.90;;;;;;;21.68;62.32;100322.97;4990159;28;106549;-70
2021/08/11 07:04:01;;;;;;;5.57;2.63;;;;;;;21.79;62.40;100324.81;4990011;28;106331;-72
2021/08/11 07:06:26;;;;;;;8.90;3.00;;;;;;;21.93;62.15;100331.59;4989016;28;106012;-75
2021/08/11 07:08:51;;;;;;;6.40;2.90;;;;;;;22.15;61.70;100330.91;4990184;28;106284;-70
2021/08/11 07:11:17;;;;;;;6.15;2.65;;;;;;;22.31;61.19;100329.28;4990353;28;106423;-74
2021/08/11 07:13:43;;;;;;;6.68;2.45;;;;;;;22.46;60.80;100328.78;4989422;28;105971;-74
2021/08/11 07:16:08;;;;;;;6.47;2.80;;;;;;;22.63;60.08;100326.84;4989305;28;107304;-72
2021/08/11 07:18:33;;;;;;;7.15;3.45;;;;;;;22.80;59.69;100334.19;4989480;28;106029;-72
2021/08/11 07:20:59;;;;;;;5.50;2.33;;;;;;;23.02;59.39;100336.13;4989294;28;106052;-76
2021/08/11 07:23:24;;;;;;;6.32;2.80;;;;;;;23.19;58.38;100331.50;4988101;28;106130;-71
2021/08/11 07:25:50;;;;;;;6.93;2.50;;;;;;;23.32;57.71;100336.59;4989372;28;105879;-74
2021/08/11 07:28:16;;;;;;;4.68;2.38;;;;;;;23.55;57.59;100339.31;4989128;28;106370;-77
2021/08/11 07:30:43;;;;;;;6.93;3.42;;;;;;;23.78;56.40;100340.94;4990883;28;105883;-72
2021/08/11 07:33:09;;;;;;;4.78;2.78;;;;;;;23.98;56.24;100343.09;4989719;28;106199;-71
2021/08/11 07:35:37;;;;;;;7.57;2.72;;;;;;;24.11;55.16;100353.59;4989194;28;105866;-71
2021/08/11 07:38:04;;;;;;;6.15;2.72;;;;;;;24.37;54.95;100342.13;4989018;28;106316;-74
2021/08/11 07:40:30;;;;;;;6.93;2.67;;;;;;;24.62;53.98;100347.81;4990118;28;105907;-72
2021/08/11 07:42:56;;;;;;;6.00;2.70;;;;;;;24.76;52.94;100350.09;4988671;28;105876;-70
2021/08/11 07:45:22;;;;;;;5.97;2.60;;;;;;;24.79;51.92;100353.09;4988998;28;106057;-68
2021/08/11 07:47:52;;;;;;;5.50;2.85;;;;;;;24.82;51.76;100358.06;4988573;28;106106;-72
2021/08/11 07:50:18;;;;;;;7.78;3.00;;;;;;;24.95;51.73;100362.22;4989519;28;105961;-71
2021/08/11 07:52:44;;;;;;;5.20;2.88;;;;;;;24.98;50.97;100356.22;4989068;28;106140;-76
2021/08/11 07:55:11;;;;;;;4.68;2.72;;;;;;;24.98;50.36;100361.69;4989655;28;106533;-70
2021/08/11 07:57:37;;;;;;;4.78;2.72;;;;;;;25.20;49.81;100363.47;4988778;28;106388;-72
2021/08/11 08:00:03;;;;;;;4.50;2.70;;;;;;;25.32;48.95;100355.09;4989626;28;105898;-72
2021/08/11 08:02:29;;;;;;;7.45;2.75;;;;;;;25.30;48.82;100363.53;4989194;28;106136;-71
2021/08/11 08:04:54;;;;;;;4.63;2.92;;;;;;;25.45;48.67;100364.72;4987456;28;107598;-73
2021/08/11 08:07:19;;;;;;;7.65;2.75;;;;;;;25.52;47.83;100359.84;4988712;28;105890;-76
2021/08/11 08:09:45;;;;;;;5.72;3.17;;;;;;;25.61;47.87;100363.69;4980108;28;105999;-77
2021/08/11 08:12:10;;;;;;;6.43;3.28;;;;;;;25.77;47.83;100358.31;4969606;28;106622;-75
2021/08/11 08:14:35;;;;;;;4.63;2.72;;;;;;;26.04;47.58;100360.88;4970394;28;106647;-72
2021/08/11 08:17:01;;;;;;;7.07;2.80;;;;;;;26.32;47.00;100356.81;4979136;28;106423;-74
2021/08/11 08:19:26;;;;;;;5.47;2.30;;;;;;;26.57;45.68;100357.09;4989563;28;106780;-74
2021/08/11 08:21:54;;;;;;;5.88;2.63;;;;;;;26.48;45.17;100363.09;4989024;28;106258;-71
2021/08/11 08:24:20;;;;;;;5.13;2.75;;;;;;;26.67;44.68;100363.38;4988420;28;105965;-75
2021/08/11 08:26:45;;;;;;;5.07;2.75;;;;;;;26.77;44.33;100362.59;4988508;28;105849;-72
2021/08/11 08:29:11;;;;;;;5.38;2.58;;;;;;;27.00;44.21;100365.84;4989409;28;105836;-74
2021/08/11 08:31:36;;;;;;;4.95;2.65;;;;;;;27.14;43.95;100364.16;4988317;28;106139;-74
2021/08/11 08:34:01;;;;;;;4.50;2.90;;;;;;;27.49;43.28;100365.19;4988580;28;105886;-75
2021/08/11 08:36:27;;;;;;;5.07;2.60;;;;;;;27.76;42.94;100369.47;4988104;28;106407;-70
2021/08/11 08:38:52;;;;;;;7.20;2.85;;;;;;;28.12;41.90;100368.47;4989346;28;106220;-69
2021/08/11 08:41:18;;;;;;;4.18;2.78;;;;;;;28.07;40.88;100369.31;4988508;28;106318;-74
2021/08/11 08:43:43;;;;;;;4.72;2.42;;;;;;;28.18;41.07;100373.59;4988552;28;105863;-71
2021/08/11 08:46:09;;;;;;;4.82;2.38;;;;;;;28.48;40.09;100376.44;4987646;28;106266;-75
2021/08/11 08:48:42;;;;;;;4.47;2.60;;;;;;;28.54;39.77;100375.28;4988967;28;105905;-72
2021/08/11 08:51:12;;;;;;;5.10;2.25;;;;;;;28.61;39.89;100372.19;4988069;28;105870;-75
2021/08/11 08:53:43;;;;;;;4.55;2.35;;;;;;;28.79;38.27;100366.06;4987707;28;105995;-75
2021/08/11 08:56:09;;;;;;;5.45;2.53;;;;;;;28.58;38.08;100365.38;4987576;28;106562;-76
2021/08/11 08:58:35;;;;;;;6.38;2.45;;;;;;;28.44;38.20;100362.47;4988440;28;105882;-76
2021/08/11 09:01:00;;;;;;;4.47;2.38;;;;;;;28.61;38.52;100363.97;4987760;28;106212;-76
2021/08/11 09:03:25;;;;;;;4.50;2.70;;;;;;;29.09;38.31;100368.78;4987504;28;105952;-72
2021/08/11 09:05:51;;;;;;;3.80;2.55;;;;;;;29.81;37.21;100362.47;4987408;28;106005;-71
2021/08/11 09:08:16;;;;;;;6.05;2.60;;;;;;;30.69;35.42;100360.06;4987879;28;106113;-74
2021/08/11 09:10:42;;;;;;;3.58;2.22;;;;;;;31.07;34.21;100363.81;4987450;28;106027;-72
2021/08/11 09:13:21;;;;;;;4.85;2.53;;;;;;;31.39;33.23;100366.47;4987168;28;106033;-71
2021/08/11 09:15:51;;;;;;;4.03;2.50;;;;;;;32.83;31.76;100370.69;4986692;28;105815;-74
2021/08/11 09:18:28;;;;;;;4.25;2.30;;;;;;;33.19;30.39;100364.22;4988453;28;105910;-77
2021/08/11 09:21:02;;;;;;;4.13;2.25;;;;;;;33.48;29.66;100368.38;4987253;28;106039;-71
2021/08/11 09:23:38;;;;;;;3.53;2.00;;;;;;;33.20;29.12;100365.00;4986953;28;107079;-75
2021/08/11 09:26:06;;;;;;;6.25;2.40;;;;;;;32.77;30.03;100357.38;4987569;28;106490;-75
2021/08/11 09:28:34;;;;;;;4.70;3.03;;;;;;;32.88;30.50;100375.28;4989008;28;105957;-72
2021/08/11 09:31:00;;;;;;;4.55;2.13;;;;;;;32.91;29.97;100369.13;4990697;28;105817;-74
2021/08/11 09:33:26;;;;;;;3.03;1.95;;;;;;;32.52;29.94;100365.13;4988876;28;107049;-74
2021/08/11 09:35:53;;;;;;;3.75;2.40;;;;;;;32.33;30.02;100366.13;4990544;28;106190;-74
2021/08/11 09:38:19;;;;;;;4.70;2.00;;;;;;;32.12;30.06;100365.75;4991286;28;105929;-75
2021/08/11 09:40:46;;;;;;;5.75;2.00;;;;;;;31.82;30.51;100370.03;4990442;28;105996;-76
2021/08/11 09:43:16;;;;;;;3.97;2.33;;;;;;;32.13;30.25;100366.59;4990186;28;105940;-76
2021/08/11 09:45:54;;;;;;;3.30;1.95;;;;;;;32.38;30.32;100367.94;4989749;28;106196;-75
2021/08/11 09:48:22;;;;;;;4.40;2.47;;;;;;;32.80;29.70;100370.53;4971255;28;106165;-74
2021/08/11 09:50:51;;;;;;;3.58;2.05;;;;;;;32.93;29.03;100372.38;4970479;28;106192;-74
2021/08/11 09:53:23;;;;;;;5.18;1.95;;;;;;;33.10;29.06;100365.31;4969112;28;106767;-72
2021/08/11 09:56:06;;;;;;;7.00;3.20;;;;;;;33.13;28.67;100368.22;4970300;28;106638;-73
2021/08/11 09:58:39;;;;;;;3.40;2.10;;;;;;;33.14;28.70;100369.88;4971473;28;106091;-74
2021/08/11 10:01:06;;;;;;;10.25;2.10;;;;;;;32.91;29.01;100369.13;4983602;28;106188;-73
2021/08/11 10:03:33;;;;;;;4.18;2.20;;;;;;;32.88;28.62;100375.28;4990140;28;106005;-71
2021/08/11 10:05:59;;;;;;;3.08;1.98;;;;;;;32.84;29.14;100369.56;4989794;28;106001;-70
2021/08/11 10:08:32;;;;;;;7.63;2.17;;;;;;;32.39;29.17;100375.09;4990764;28;106038;-72
2021/08/11 10:10:58;;;;;;;3.92;2.03;;;;;;;31.98;29.52;100367.75;4989955;28;105970;-73
2021/08/11 10:13:25;;;;;;;3.83;2.33;;;;;;;31.60;30.00;100374.34;4989428;28;106042;-70
2021/08/11 10:15:51;;;;;;;4.70;2.20;;;;;;;31.24;30.31;100371.50;4989136;28;105959;-72
2021/08/11 10:18:27;;;;;;;5.72;2.40;;;;;;;31.00;30.65;100369.69;4990827;28;105879;-71
2021/08/11 10:20:56;;;;;;;3.17;1.98;;;;;;;30.77;30.65;100383.31;4990210;28;106427;-75
2021/08/11 10:23:22;;;;;;;8.63;2.43;;;;;;;30.51;31.07;100380.16;4989834;28;106595;-71
2021/08/11 10:25:49;;;;;;;3.42;1.88;;;;;;;30.12;31.70;100379.34;4989529;28;106081;-74
2021/08/11 10:28:17;;;;;;;4.20;2.50;;;;;;;29.94;32.09;100381.00;4991050;28;106112;-74
2021/08/11 10:30:43;;;;;;;3.07;2.60;;;;;;;29.92;32.30;100385.13;4990004;28;106147;-72
2021/08/11 10:33:09;;;;;;;5.07;2.50;;;;;;;30.13;32.18;100380.19;4989561;28;106163;-70
2021/08/11 10:35:35;;;;;;;6.07;2.50;;;;;;;30.36;32.24;100382.03;4989550;28;106029;-71
2021/08/11 10:38:03;;;;;;;5.35;2.58;;;;;;;29.90;31.92;100381.88;4990213;28;106279;-70
2021/08/11 10:40:28;;;;;;;4.20;2.15;;;;;;;29.60;32.68;100378.41;4989814;28;106326;-70
2021/08/11 10:42:56;;;;;;;2.97;1.88;;;;;;;29.62;32.09;100377.00;4988092;28;106516;-69
2021/08/11 10:45:26;;;;;;;4.80;2.53;;;;;;;29.35;32.32;100377.59;4989775;28;106624;-73
2021/08/11 10:47:52;;;;;;;4.60;2.50;;;;;;;29.48;32.60;100378.81;4990319;28;106023;-79
2021/08/11 10:50:17;;;;;;;4.45;2.00;;;;;;;29.70;32.54;100378.25;4990073;28;106188;-77
2021/08/11 10:52:44;;;;;;;5.15;2.13;;;;;;;29.65;32.42;100379.13;4989554;28;106402;-74
2021/08/11 10:55:09;;;;;;;4.63;2.10;;;;;;;29.43;32.35;100376.09;4989653;28;106759;-78
2021/08/11 10:57:38;;;;;;;4.07;2.13;;;;;;;29.46;32.59;100376.34;4990135;28;105999;-73
2021/08/11 11:00:22;;;;;;;5.03;2.10;;;;;;;29.63;32.43;100361.34;4989490;28;105871;-70
2021/08/11 11:02:52;;;;;;;4.35;2.15;;;;;;;29.86;31.77;100362.44;4989395;28;106401;-72
2021/08/11 11:05:20;;;;;;;6.18;2.30;;;;;;;29.73;31.66;100366.69;4989122;28;106032;-69
2021/08/11 11:08:08;;;;;;;3.92;2.03;;;;;;;29.83;31.92;100376.72;4989910;28;106473;-71
2021/08/11 11:10:35;;;;;;;3.13;1.95;;;;;;;29.81;32.13;100378.94;4989394;28;105966;-70
2021/08/11 11:13:01;;;;;;;3.28;1.92;;;;;;;29.93;31.47;100370.31;4988844;28;106003;-70
2021/08/11 11:15:41;;;;;;;2.97;1.90;;;;;;;30.07;31.75;100368.44;4989057;28;105962;-70
2021/08/11 11:21:06;;;;;;;3.10;1.90;;;;;;;30.59;30.75;100370.41;4971099;28;106007;-69
2021/08/11 11:23:40;;;;;;;3.83;2.10;;;;;;;30.63;30.56;100369.50;4987448;28;105942;-69
2021/08/11 11:26:08;;;;;;;3.95;2.15;;;;;;;30.36;30.72;100371.03;4988535;28;106727;-68
2021/08/11 11:28:56;;;;;;;3.35;1.98;;;;;;;30.51;30.61;100378.25;4989520;28;105951;-70
2021/08/11 11:31:43;;;;;;;3.40;1.58;;;;;;;30.59;30.16;100368.47;4989071;28;106222;-73
2021/08/11 11:34:32;;;;;;;5.45;2.55;;;;;;;30.39;30.07;100372.38;4988584;28;106989;-69
2021/08/11 11:37:00;;;;;;;3.95;2.65;;;;;;;29.92;30.65;100377.69;4988845;28;105899;-73
2021/08/11 11:39:55;;;;;;;3.83;2.00;;;;;;;30.26;30.97;100371.16;4989130;28;106308;-70
2021/08/11 11:42:25;;;;;;;3.08;1.85;;;;;;;30.68;30.14;100363.13;4988202;28;106152;-70
2021/08/11 11:44:54;;;;;;;6.97;1.90;;;;;;;30.32;29.93;100367.25;4988827;28;106430;-68
2021/08/11 11:47:35;;;;;;;3.73;2.33;;;;;;;30.47;30.29;100373.63;4988253;28;106090;-68
2021/08/11 11:50:21;;;;;;;4.03;2.10;;;;;;;30.74;30.27;100366.59;4989297;28;106116;-68
2021/08/11 11:52:49;;;;;;;7.03;2.78;;;;;;;31.00;29.99;100373.28;4988104;28;105763;-69
2021/08/11 11:55:15;;;;;;;4.32;2.47;;;;;;;30.94;30.01;100371.72;4988514;28;105905;-76
2021/08/11 11:57:40;;;;;;;4.20;2.08;;;;;;;31.03;30.06;100364.44;4988358;28;106148;-72
2021/08/11 12:00:07;;;;;;;3.97;2.03;;;;;;;31.22;29.47;100360.75;4988878;28;106085;-73
2021/08/11 12:02:33;;;;;;;4.57;2.30;;;;;;;31.20;29.36;100368.53;4987028;28;105942;-71
2021/08/11 12:05:04;;;;;;;3.67;2.20;;;;;;;31.33;29.47;100362.22;4987104;28;106945;-71
2021/08/11 12:07:32;;;;;;;3.20;1.83;;;;;;;31.43;28.81;100352.13;4988003;28;106082;-70
2021/08/11 12:10:00;;;;;;;5.78;1.98;;;;;;;31.65;28.88;100354.16;4989112;28;105921;-71
2021/08/11 12:12:28;;;;;;;4.95;2.17;;;;;;;31.87;28.66;100351.44;4988368;28;106175;-70
2021/08/11 12:15:18;;;;;;;6.22;2.00;;;;;;;32.01;27.87;100362.47;4988415;28;105965;-71
2021/08/11 12:17:44;;;;;;;4.22;2.10;;;;;;;31.77;27.87;100359.13;4986795;28;106256;-68
2021/08/11 12:20:36;;;;;;;3.70;2.10;;;;;;;31.64;28.02;100349.78;4988616;28;106003;-70
2021/08/11 12:23:25;;;;;;;4.65;2.08;;;;;;;31.70;27.88;100354.88;4986629;28;106037;-69
2021/08/11 12:26:06;;;;;;;3.30;2.00;;;;;;;31.45;27.71;100349.88;4985834;28;107736;-70
2021/08/11 12:28:40;;;;;;;3.28;1.80;;;;;;;31.18;27.96;100357.84;4987930;28;106079;-74
2021/08/11 12:31:29;;;;;;;3.03;1.90;;;;;;;31.36;27.95;100358.84;4989159;28;106880;-69
2021/08/11 12:33:58;;;;;;;3.20;1.85;;;;;;;31.31;27.70;100353.44;4987767;28;106256;-71
2021/08/11 12:36:29;;;;;;;4.22;2.05;;;;;;;31.29;27.60;100350.19;4987881;28;106117;-69
2021/08/11 12:39:13;;;;;;;2.90;1.92;;;;;;;31.18;27.79;100359.75;4987821;28;105886;-71
2021/08/11 12:41:41;;;;;;;6.40;2.35;;;;;;;31.35;27.78;100348.16;4988092;28;106179;-68
2021/08/11 12:44:18;;;;;;;3.63;2.30;;;;;;;31.56;27.39;100348.53;4986670;28;106381;-70
2021/08/11 12:46:43;;;;;;;3.33;1.70;;;;;;;31.54;27.16;100351.59;4987592;28;105873;-68
2021/08/11 12:49:17;;;;;;;4.77;2.13;;;;;;;31.73;26.99;100345.97;4987680;28;105917;-69
2021/08/11 12:51:43;;;;;;;2.95;1.80;;;;;;;31.99;26.64;100341.84;4987967;28;105984;-67
2021/08/11 12:54:09;;;;;;;4.68;1.98;;;;;;;32.17;26.49;100345.59;4987857;28;105893;-69
2021/08/11 12:56:53;;;;;;;3.92;1.90;;;;;;;32.02;26.29;100343.97;4987485;28;106004;-71
2021/08/11 12:59:18;;;;;;;5.82;1.98;;;;;;;31.89;26.17;100346.47;4987748;28;106083;-69
2021/08/11 13:01:45;;;;;;;3.30;2.05;;;;;;;31.92;26.14;100347.78;4987907;28;105993;-71
2021/08/11 13:04:14;;;;;;;2.97;1.80;;;;;;;32.07;26.39;100346.63;4989753;28;106281;-72
2021/08/11 13:06:44;;;;;;;4.13;2.17;;;;;;;32.04;26.52;100345.28;4990989;28;106015;-68
2021/08/11 13:09:27;;;;;;;4.85;2.08;;;;;;;32.19;26.25;100343.31;4990559;28;106133;-72
2021/08/11 13:11:54;;;;;;;4.53;2.00;;;;;;;32.28;26.09;100340.66;4990702;28;106069;-71
2021/08/11 13:14:41;;;;;;;3.70;1.88;;;;;;;32.05;25.97;100349.69;4991149;28;106218;-77
2021/08/11 13:17:07;;;;;;;3.83;1.83;;;;;;;31.93;26.25;100343.88;4990958;28;107335;-69
2021/08/11 13:19:32;;;;;;;6.88;2.00;;;;;;;31.70;26.82;100343.84;4989517;28;106331;-77
2021/08/11 13:21:57;;;;;;;6.28;1.95;;;;;;;31.52;26.81;100351.09;4992039;28;105970;-73
2021/08/11 13:24:23;;;;;;;3.65;2.03;;;;;;;31.26;27.13;100348.03;4990987;28;106159;-74
2021/08/11 13:26:56;;;;;;;4.65;2.10;;;;;;;31.13;27.15;100341.41;4990776;28;106103;-71
2021/08/11 13:29:28;;;;;;;3.08;2.05;;;;;;;30.99;27.46;100355.13;4990161;28;106851;-71
2021/08/11 13:31:56;;;;;;;4.10;1.90;;;;;;;31.00;27.55;100359.53;4991144;28;106034;-76
2021/08/11 13:34:21;;;;;;;3.28;2.10;;;;;;;30.93;27.70;100356.34;4990775;28;106222;-70
2021/08/11 13:36:47;;;;;;;4.75;2.50;;;;;;;30.85;27.98;100351.53;4990562;28;106681;-74
2021/08/11 13:39:14;;;;;;;3.60;2.30;;;;;;;30.70;28.04;100352.63;4990489;28;106272;-75
2021/08/11 13:41:39;;;;;;;3.97;2.15;;;;;;;30.50;27.95;100345.56;4990853;28;106187;-69
2021/08/11 13:44:04;;;;;;;4.57;2.00;;;;;;;30.24;28.19;100359.69;4991131;28;106409;-74
2021/08/11 13:46:30;;;;;;;3.75;1.85;;;;;;;29.98;28.33;100345.53;4990650;28;106666;-77
2021/08/11 13:48:55;;;;;;;4.53;1.92;;;;;;;29.78;28.60;100355.63;4990815;28;106461;-74
2021/08/11 13:51:21;;;;;;;4.25;2.15;;;;;;;29.81;28.73;100354.22;4991717;28;107012;-75
2021/08/11 13:53:47;;;;;;;3.88;2.25;;;;;;;29.87;28.72;100350.34;4990617;28;106202;-73
2021/08/11 13:56:13;;;;;;;5.60;1.80;;;;;;;29.92;28.51;100357.69;4990342;28;106005;-68
2021/08/11 13:58:39;;;;;;;4.18;2.08;;;;;;;29.84;28.87;100359.94;4990305;28;105903;-70
